sensor_id;sensor_type;location;lat;lon;timestamp;P1;durP1;ratioP1;P2;durP2;ratioP2
72674;SDS011;60752;53.962;9.614;2023-05-14T00:09:50;8.27;;;4.23;;
72674;SDS011;60752;53.962;9.614;2023-05-14T00:39:52;6.80;;;3.63;;
72674;SDS011;60752;53.962;9.614;2023-05-14T01:09:55;6.60;;;3.80;;
72674;SDS011;60752;53.962;9.614;2023-05-14T01:40:01;9.87;;;4.10;;
72674;SDS011;60752;53.962;9.614;2023-05-14T02:10:04;10.45;;;4.25;;
72674;SDS011;60752;53.962;9.614;2023-05-14T02:40:08;7.27;;;4.07;;
72674;SDS011;60752;53.962;9.614;2023-05-14T03:10:10;9.07;;;4.37;;
72674;SDS011;60752;53.962;9.614;2023-05-14T03:40:12;7.00;;;4.30;;
72674;SDS011;60752;53.962;9.614;2023-05-14T04:10:14;10.77;;;4.60;;
72674;SDS011;60752;53.962;9.614;2023-05-14T04:40:16;10.93;;;4.43;;
72674;SDS011;60752;53.962;9.614;2023-05-14T05:10:18;7.63;;;4.50;;
72674;SDS011;60752;53.962;9.614;2023-05-14T05:40:19;8.47;;;4.47;;
72674;SDS011;60752;53.962;9.614;2023-05-14T06:10:21;7.13;;;4.10;;
72674;SDS011;60752;53.962;9.614;2023-05-14T06:40:23;11.03;;;4.70;;
72674;SDS011;60752;53.962;9.614;2023-05-14T07:10:25;6.85;;;4.00;;
72674;SDS011;60752;53.962;9.614;2023-05-14T07:40:27;6.10;;;3.60;;
72674;SDS011;60752;53.962;9.614;2023-05-14T08:10:29;5.60;;;2.93;;
72674;SDS011;60752;53.962;9.614;2023-05-14T08:40:31;8.57;;;2.80;;
72674;SDS011;60752;53.962;9.614;2023-05-14T09:10:33;5.40;;;2.40;;
72674;SDS011;60752;53.962;9.614;2023-05-14T09:40:35;6.20;;;2.38;;
72674;SDS011;60752;53.962;9.614;2023-05-14T10:10:37;6.63;;;2.73;;
72674;SDS011;60752;53.962;9.614;2023-05-14T10:40:39;4.83;;;2.50;;
72674;SDS011;60752;53.962;9.614;2023-05-14T11:10:41;6.60;;;2.80;;
72674;SDS011;60752;53.962;9.614;2023-05-14T11:40:49;8.70;;;2.20;;
72674;SDS011;60752;53.962;9.614;2023-05-14T12:10:52;4.40;;;2.20;;
72674;SDS011;60752;53.962;9.614;2023-05-14T12:40:54;4.53;;;1.70;;
72674;SDS011;60752;53.962;9.614;2023-05-14T13:10:56;7.50;;;2.60;;
72674;SDS011;60752;53.962;9.614;2023-05-14T13:40:58;4.87;;;2.50;;
72674;SDS011;60752;53.962;9.614;2023-05-14T14:11:00;5.47;;;2.80;;
72674;SDS011;60752;53.962;9.614;2023-05-14T14:41:02;7.90;;;2.50;;
72674;SDS011;60752;53.962;9.614;2023-05-14T15:11:04;4.80;;;2.37;;
72674;SDS011;60752;53.962;9.614;2023-05-14T15:41:05;4.57;;;2.30;;
72674;SDS011;60752;53.962;9.614;2023-05-14T16:11:07;5.83;;;2.90;;
72674;SDS011;60752;53.962;9.614;2023-05-14T16:41:09;5.40;;;2.77;;
72674;SDS011;60752;53.962;9.614;2023-05-14T17:11:11;6.38;;;2.58;;
72674;SDS011;60752;53.962;9.614;2023-05-14T17:41:13;8.83;;;2.43;;
72674;SDS011;60752;53.962;9.614;2023-05-14T18:11:15;4.67;;;2.50;;
72674;SDS011;60752;53.962;9.614;2023-05-14T18:41:16;5.60;;;2.87;;
72674;SDS011;60752;53.962;9.614;2023-05-14T19:11:18;8.93;;;3.40;;
72674;SDS011;60752;53.962;9.614;2023-05-14T19:41:20;11.40;;;4.18;;
72674;SDS011;60752;53.962;9.614;2023-05-14T20:11:22;7.47;;;3.30;;
72674;SDS011;60752;53.962;9.614;2023-05-14T20:41:23;7.83;;;3.00;;
72674;SDS011;60752;53.962;9.614;2023-05-14T21:11:25;6.47;;;3.27;;
72674;SDS011;60752;53.962;9.614;2023-05-14T21:41:27;6.83;;;4.23;;
72674;SDS011;60752;53.962;9.614;2023-05-14T22:11:30;7.78;;;4.20;;
72674;SDS011;60752;53.962;9.614;2023-05-14T22:41:32;6.87;;;4.20;;
72674;SDS011;60752;53.962;9.614;2023-05-14T23:11:34;6.90;;;3.80;;
72674;SDS011;60752;53.962;9.614;2023-05-14T23:41:35;5.93;;;3.27;;
